Hoegh Transporter — LAKO7 — position and weather

sailwx.info

Track history (hours):
 
Tides and Currents Weather Stations Pressure Air Temp Water Temp Dewpoint Dewpoint Depression Visibility Wind Speed Wind Dir Waves Ship Positions

Hoegh Transporter

Last reported at 2016-May-22 05:33 UTC. Time now 2016-Jun-26 19:15 UTC.
Position N 30°55' E 032°19'.
Warning: this ship's position is 35 days out of date.

Length 199 m; draft 9 m.

Type: Cargo ship. MMSI: 257712000.

Date/timePositionNaut miles runAvg speedWind from/ knotsBaromVisibWave heightAir tempDewpointWater temp
2016-May-22 05:33N 30°55' E 032°19'9 8.9
2016-May-22 04:34N 31°04' E 032°19'9 8.7
2016-May-22 03:34N 31°13' E 032°18'8 7.8
2016-May-22 02:33N 31°20' E 032°22'3 2.5
2016-May-22 01:33N 31°22' E 032°20'0 0.1
2016-May-22 00:33N 31°22' E 032°20'0 0.0
2016-May-21 23:27N 31°22' E 032°20'0 0.0
2016-May-21 22:03N 31°22' E 032°20'0 0.0
2016-May-21 21:33N 31°22' E 032°20'0 0.0
2016-May-21 20:33N 31°22' E 032°20'2 2.4
2016-May-21 19:33N 31°22' E 032°17'1110.5
2016-May-21 18:33N 31°32' E 032°12'1414.0
2016-May-21 17:33N 31°42' E 032°01'1514.3
2016-May-21 16:30N 31°48' E 031°45'1515.0
2016-May-21 15:31N 31°53' E 031°28'1515.1
2016-May-21 14:33N 31°57' E 031°12'1715.1
2016-May-21 13:24N 32°03' E 030°52'1514.9
2016-May-21 12:24N 32°07' E 030°35'1214.8
2016-May-21 11:33N 32°11' E 030°21'4414.7
2016-May-21 08:32N 32°24' E 029°31'1414.7
2016-May-21 07:33N 32°29' E 029°15'1515.0
2016-May-21 06:33N 32°33' E 028°58'14415.5
2016-May-20 21:16N 33°16' E 026°15'  
2016-May-18 04:04N 35°31' E 017°46'3413.7
2016-May-18 01:33N 35°42' E 017°06'1514.2
2016-May-18 00:31N 35°46' E 016°49'1414.4
2016-May-17 23:33N 35°50' E 016°32'1514.4
2016-May-17 22:32N 35°55' E 016°15'1514.5
2016-May-17 21:29N 35°59' E 015°57'2814.6
2016-May-17 19:32N 36°07' E 015°23'1514.9
2016-May-17 18:33N 36°12' E 015°06'1515.0
2016-May-17 17:33N 36°17' E 014°49'1514.9
2016-May-17 16:33N 36°21' E 014°31'1514.9
2016-May-17 15:33N 36°25' E 014°13'1514.8
2016-May-17 14:33N 36°30' E 013°56'1515.2
2016-May-17 13:33N 36°34' E 013°38'1717.3
2016-May-17 12:33N 36°40' E 013°17'1515.4
2016-May-17 11:33N 36°45' E 012°59'1514.7
2016-May-17 10:33N 36°49' E 012°42'43114.7
2016-May-16 05:15N 37°04' E 003°43'1419.0
2016-May-16 04:31N 37°02' E 003°25'1919.3
2016-May-16 03:33N 36°60' E 003°02'3718.4
2016-May-16 01:32N 36°54' E 002°17'1818.3
2016-May-16 00:33N 36°51' E 001°54'1818.6
2016-May-15 23:33N 36°49' E 001°31'2318.6
2016-May-15 22:21N 36°45' E 001°04'1418.0
2016-May-15 21:33N 36°43' E 000°46'1717.3
2016-May-15 20:33N 36°41' E 000°25'1717.2
2016-May-15 19:33N 36°39' E 000°04'1717.0
2016-May-15 18:33N 36°37' W 000°18'1717.1
2016-May-15 17:33N 36°33' W 000°38'22318.2
2016-May-15 05:17N 35°60' W 005°12'1520.4
2016-May-15 04:34N 35°57' W 005°30'  
Track history (hours):
 
Tides and Currents Weather Stations Pressure Air Temp Water Temp Dewpoint Dewpoint Depression Visibility Wind Speed Wind Dir Waves Ship Positions

Hoegh Transporter

Last reported at 2016-May-22 05:33 UTC. Time now 2016-Jun-26 19:15 UTC.
Position N 30°55' E 032°19'.
Warning: this ship's position is 35 days out of date.

Length 199 m; draft 9 m.

Type: Cargo ship. MMSI: 257712000.

Date/timePositionNaut miles runAvg speedWind from/ knotsBaromVisibWave heightAir tempDewpointWater temp
2016-May-22 05:33N 30°55' E 032°19'9 8.9
2016-May-22 04:34N 31°04' E 032°19'9 8.7
2016-May-22 03:34N 31°13' E 032°18'8 7.8
2016-May-22 02:33N 31°20' E 032°22'3 2.5
2016-May-22 01:33N 31°22' E 032°20'0 0.1
2016-May-22 00:33N 31°22' E 032°20'0 0.0
2016-May-21 23:27N 31°22' E 032°20'0 0.0
2016-May-21 22:03N 31°22' E 032°20'0 0.0
2016-May-21 21:33N 31°22' E 032°20'0 0.0
2016-May-21 20:33N 31°22' E 032°20'2 2.4
2016-May-21 19:33N 31°22' E 032°17'1110.5
2016-May-21 18:33N 31°32' E 032°12'1414.0
2016-May-21 17:33N 31°42' E 032°01'1514.3
2016-May-21 16:30N 31°48' E 031°45'1515.0
2016-May-21 15:31N 31°53' E 031°28'1515.1
2016-May-21 14:33N 31°57' E 031°12'1715.1
2016-May-21 13:24N 32°03' E 030°52'1514.9
2016-May-21 12:24N 32°07' E 030°35'1214.8
2016-May-21 11:33N 32°11' E 030°21'4414.7
2016-May-21 08:32N 32°24' E 029°31'1414.7
2016-May-21 07:33N 32°29' E 029°15'1515.0
2016-May-21 06:33N 32°33' E 028°58'14415.5
2016-May-20 21:16N 33°16' E 026°15'  
2016-May-18 04:04N 35°31' E 017°46'3413.7
2016-May-18 01:33N 35°42' E 017°06'1514.2
2016-May-18 00:31N 35°46' E 016°49'1414.4
2016-May-17 23:33N 35°50' E 016°32'1514.4
2016-May-17 22:32N 35°55' E 016°15'1514.5
2016-May-17 21:29N 35°59' E 015°57'2814.6
2016-May-17 19:32N 36°07' E 015°23'1514.9
2016-May-17 18:33N 36°12' E 015°06'1515.0
2016-May-17 17:33N 36°17' E 014°49'1514.9
2016-May-17 16:33N 36°21' E 014°31'1514.9
2016-May-17 15:33N 36°25' E 014°13'1514.8
2016-May-17 14:33N 36°30' E 013°56'1515.2
2016-May-17 13:33N 36°34' E 013°38'1717.3
2016-May-17 12:33N 36°40' E 013°17'1515.4
2016-May-17 11:33N 36°45' E 012°59'1514.7
2016-May-17 10:33N 36°49' E 012°42'43114.7
2016-May-16 05:15N 37°04' E 003°43'1419.0
2016-May-16 04:31N 37°02' E 003°25'1919.3
2016-May-16 03:33N 36°60' E 003°02'3718.4
2016-May-16 01:32N 36°54' E 002°17'1818.3
2016-May-16 00:33N 36°51' E 001°54'1818.6
2016-May-15 23:33N 36°49' E 001°31'2318.6
2016-May-15 22:21N 36°45' E 001°04'1418.0
2016-May-15 21:33N 36°43' E 000°46'1717.3
2016-May-15 20:33N 36°41' E 000°25'1717.2
2016-May-15 19:33N 36°39' E 000°04'1717.0
2016-May-15 18:33N 36°37' W 000°18'1717.1
2016-May-15 17:33N 36°33' W 000°38'22318.2
2016-May-15 05:17N 35°60' W 005°12'1520.4
2016-May-15 04:34N 35°57' W 005°30'  

Dump ship's entire track history